createdAt,value
2023-05-04T00:00:45.311Z,49.86
2023-05-04T00:01:45.318Z,49.87
2023-05-04T00:02:45.438Z,49.87
2023-05-04T00:03:45.550Z,49.83
2023-05-04T00:04:44.337Z,49.86
2023-05-04T00:05:44.334Z,49.86
2023-05-04T00:06:45.291Z,49.86
2023-05-04T00:07:44.291Z,49.82
2023-05-04T00:08:45.308Z,49.80
2023-05-04T00:09:44.262Z,49.84
2023-05-04T00:10:44.250Z,49.83
2023-05-04T00:11:45.276Z,49.80
2023-05-04T00:12:45.263Z,49.83
2023-05-04T00:13:44.228Z,49.81
2023-05-04T00:14:44.237Z,49.83
2023-05-04T00:15:44.217Z,49.82
2023-05-04T00:16:45.225Z,49.83
2023-05-04T00:17:44.247Z,49.79
2023-05-04T00:18:44.191Z,49.83
2023-05-04T00:19:45.190Z,49.79
2023-05-04T00:20:45.197Z,49.81
2023-05-04T00:21:45.193Z,49.78
2023-05-04T00:22:44.138Z,49.80
2023-05-04T00:23:44.149Z,49.79
2023-05-04T00:24:44.154Z,49.83
2023-05-04T00:25:44.147Z,49.78
2023-05-04T00:26:45.136Z,49.78
2023-05-04T00:27:44.141Z,49.79
2023-05-04T00:28:44.123Z,49.80
2023-05-04T00:29:44.139Z,49.79
2023-05-04T00:30:45.103Z,49.82
2023-05-04T00:31:45.126Z,49.80
2023-05-04T00:32:45.092Z,49.80
2023-05-04T00:33:44.080Z,49.76
2023-05-04T00:34:44.127Z,49.77
2023-05-04T00:35:45.094Z,49.75
2023-05-04T00:36:45.063Z,49.78
2023-05-04T00:37:45.052Z,49.78
2023-05-04T00:38:44.050Z,49.79
2023-05-04T00:39:45.049Z,49.78
2023-05-04T00:40:45.031Z,49.77
2023-05-04T00:41:45.068Z,49.75
2023-05-04T00:42:44.005Z,49.78
2023-05-04T00:43:45.035Z,49.73
2023-05-04T00:44:44.993Z,49.74
2023-05-04T00:45:45.004Z,49.75
2023-05-04T00:46:44.045Z,49.74
2023-05-04T00:47:44.010Z,49.71
2023-05-04T00:48:44.975Z,49.74
2023-05-04T00:49:44.971Z,49.69
2023-05-04T00:50:44.966Z,49.71
2023-05-04T00:51:43.963Z,49.71
2023-05-04T00:52:48.587Z,49.70
2023-05-04T00:53:43.956Z,49.72
2023-05-04T00:54:43.973Z,49.71
2023-05-04T00:55:44.979Z,49.73
2023-05-04T00:56:43.925Z,49.69
2023-05-04T00:57:44.940Z,49.68
2023-05-04T00:58:44.906Z,49.70
2023-05-04T00:59:45.010Z,49.66
2023-05-04T01:00:44.921Z,49.70
2023-05-04T01:01:44.878Z,49.70
2023-05-04T01:02:43.904Z,49.71
2023-05-04T01:03:44.947Z,49.66
2023-05-04T01:04:43.856Z,49.68
2023-05-04T01:05:44.859Z,49.67
2023-05-04T01:06:44.869Z,49.66
2023-05-04T01:07:44.838Z,49.65
2023-05-04T01:08:43.851Z,49.64
2023-05-04T01:09:44.825Z,49.64
2023-05-04T01:10:43.812Z,49.65
2023-05-04T01:11:43.805Z,49.63
2023-05-04T01:12:44.905Z,49.63
2023-05-04T01:13:45.300Z,49.63
2023-05-04T01:14:43.811Z,49.60
2023-05-04T01:15:44.805Z,49.65
2023-05-04T01:16:44.817Z,49.60
2023-05-04T01:17:43.828Z,49.61
2023-05-04T01:18:44.760Z,49.62
2023-05-04T01:19:44.786Z,49.61
2023-05-04T01:20:44.753Z,49.60
2023-05-04T01:21:44.736Z,49.62
2023-05-04T01:22:44.769Z,49.60
2023-05-04T01:23:44.744Z,49.59
2023-05-04T01:24:44.733Z,49.56
2023-05-04T01:25:44.714Z,49.59
2023-05-04T01:26:44.754Z,49.59
2023-05-04T01:27:43.706Z,49.62
2023-05-04T01:28:44.692Z,49.60
2023-05-04T01:29:43.718Z,49.58
2023-05-04T01:30:45.185Z,49.52
2023-05-04T01:31:43.693Z,49.51
2023-05-04T01:32:44.666Z,49.54
2023-05-04T01:33:44.690Z,49.53
2023-05-04T01:34:44.663Z,49.52
2023-05-04T01:35:44.631Z,49.54
2023-05-04T01:36:44.636Z,49.57
2023-05-04T01:37:44.654Z,49.51
2023-05-04T01:38:44.669Z,49.55
2023-05-04T01:39:43.683Z,49.54
2023-05-04T01:40:44.694Z,49.49
2023-05-04T01:41:44.709Z,49.52
2023-05-04T01:42:44.723Z,49.48
2023-05-04T01:43:43.722Z,49.53
2023-05-04T01:44:44.812Z,49.50
2023-05-04T01:45:44.747Z,49.49
2023-05-04T01:46:44.832Z,49.48
2023-05-04T01:47:45.037Z,49.50
2023-05-04T01:48:44.752Z,49.50
2023-05-04T01:49:44.776Z,49.54
2023-05-04T01:50:43.771Z,49.46
2023-05-04T01:51:44.800Z,49.52
2023-05-04T01:52:44.810Z,49.51
2023-05-04T01:53:44.820Z,49.49
2023-05-04T01:54:44.848Z,49.46
2023-05-04T01:55:43.879Z,49.47
2023-05-04T01:56:44.862Z,49.46
2023-05-04T01:57:44.928Z,49.43
2023-05-04T01:58:44.933Z,49.47
2023-05-04T01:59:44.953Z,49.47
2023-05-04T02:00:43.930Z,49.48
2023-05-04T02:01:45.624Z,49.49
2023-05-04T02:02:45.072Z,49.46
2023-05-04T02:03:44.088Z,49.48
2023-05-04T02:04:45.004Z,49.45
2023-05-04T02:05:44.996Z,49.45
2023-05-04T02:06:44.042Z,49.46
2023-05-04T02:07:45.051Z,49.46
2023-05-04T02:08:44.074Z,49.42
2023-05-04T02:09:45.098Z,49.40
2023-05-04T02:10:45.095Z,49.44
2023-05-04T02:11:45.116Z,49.41
2023-05-04T02:12:44.162Z,49.43
2023-05-04T02:13:45.205Z,49.36
2023-05-04T02:14:45.186Z,49.40
2023-05-04T02:15:45.207Z,49.36
2023-05-04T02:16:44.216Z,49.39
2023-05-04T02:17:45.344Z,49.38
2023-05-04T02:18:45.255Z,49.38
2023-05-04T02:19:45.306Z,49.41
2023-05-04T02:20:45.336Z,49.38
2023-05-04T02:21:45.319Z,49.42
2023-05-04T02:22:45.348Z,49.39
2023-05-04T02:23:45.385Z,49.40
2023-05-04T02:24:44.367Z,49.40
2023-05-04T02:25:45.420Z,49.40
2023-05-04T02:26:45.428Z,49.39
2023-05-04T02:27:45.455Z,49.37
2023-05-04T02:28:44.485Z,49.37
2023-05-04T02:29:44.509Z,49.36
2023-05-04T02:30:45.549Z,49.35
2023-05-04T02:31:44.593Z,49.35
2023-05-04T02:32:44.608Z,49.37
2023-05-04T02:33:45.608Z,49.33
2023-05-04T02:34:45.648Z,49.37
2023-05-04T02:35:44.693Z,49.39
2023-05-04T02:36:44.703Z,49.34
2023-05-04T02:37:45.727Z,49.30
2023-05-04T02:38:45.756Z,49.30
2023-05-04T02:39:45.782Z,49.30
2023-05-04T02:40:45.807Z,49.31
2023-05-04T02:41:47.027Z,49.28
2023-05-04T02:42:45.679Z,49.29
2023-05-04T02:43:46.035Z,49.29
2023-05-04T02:44:46.056Z,49.30
2023-05-04T02:45:46.109Z,49.32
2023-05-04T02:46:46.086Z,49.28
2023-05-04T02:47:46.196Z,49.31
2023-05-04T02:48:46.136Z,49.27
2023-05-04T02:49:46.192Z,49.24
2023-05-04T02:50:46.208Z,49.27
2023-05-04T02:51:45.285Z,49.25
2023-05-04T02:52:46.233Z,49.29
2023-05-04T02:53:45.291Z,49.25
2023-05-04T02:54:45.306Z,49.25
2023-05-04T02:55:45.314Z,49.26
2023-05-04T02:56:46.356Z,49.26
2023-05-04T02:57:45.369Z,49.25
2023-05-04T02:58:45.442Z,49.27
2023-05-04T02:59:46.506Z,49.22
2023-05-04T03:00:46.497Z,49.21
2023-05-04T03:01:46.588Z,49.22
2023-05-04T03:02:46.561Z,49.21
2023-05-04T03:03:45.581Z,49.22
2023-05-04T03:04:45.662Z,49.22
2023-05-04T03:05:46.588Z,49.21
2023-05-04T03:06:45.593Z,49.17
2023-05-04T03:07:45.636Z,49.22
2023-05-04T03:08:45.676Z,49.23
2023-05-04T03:09:47.895Z,49.20
2023-05-04T03:10:45.686Z,49.19
2023-05-04T03:11:46.672Z,49.19
2023-05-04T03:12:46.788Z,49.18
2023-05-04T03:13:45.747Z,49.15
2023-05-04T03:14:45.756Z,49.18
2023-05-04T03:15:46.802Z,49.16
2023-05-04T03:16:46.913Z,49.11
2023-05-04T03:17:46.848Z,49.15
2023-05-04T03:18:56.275Z,49.14
2023-05-04T03:19:46.831Z,49.14
2023-05-04T03:20:45.854Z,49.17
2023-05-04T03:21:45.809Z,49.13
2023-05-04T03:22:46.829Z,49.13
2023-05-04T03:23:45.828Z,49.12
2023-05-04T03:24:46.801Z,49.15
2023-05-04T03:25:45.807Z,49.17
2023-05-04T03:26:46.807Z,49.13
2023-05-04T03:27:46.782Z,49.11
2023-05-04T03:28:46.787Z,49.13
2023-05-04T03:29:46.771Z,49.11
2023-05-04T03:30:45.778Z,49.14
2023-05-04T03:31:46.806Z,49.13
2023-05-04T03:32:45.788Z,49.14
2023-05-04T03:33:46.745Z,49.10
2023-05-04T03:34:45.727Z,49.13
2023-05-04T03:35:46.714Z,49.13
2023-05-04T03:36:46.742Z,49.14
2023-05-04T03:37:46.737Z,49.13
2023-05-04T03:38:45.721Z,49.07
2023-05-04T03:39:46.706Z,49.15
2023-05-04T03:40:46.685Z,49.06
2023-05-04T03:41:45.667Z,49.08
2023-05-04T03:42:45.697Z,49.09
2023-05-04T03:43:46.661Z,49.05
2023-05-04T03:44:45.664Z,49.05
2023-05-04T03:45:46.661Z,49.07
2023-05-04T03:46:45.626Z,49.08
2023-05-04T03:47:46.679Z,49.07
2023-05-04T03:48:46.627Z,49.07
2023-05-04T03:49:45.598Z,49.02
2023-05-04T03:50:45.608Z,49.02
2023-05-04T03:51:46.601Z,49.04
2023-05-04T03:52:45.588Z,49.02
2023-05-04T03:53:45.585Z,49.04
2023-05-04T03:54:45.582Z,49.00
2023-05-04T03:55:46.596Z,49.04
2023-05-04T03:56:45.559Z,49.00
2023-05-04T03:57:45.550Z,49.00
2023-05-04T03:58:46.541Z,49.03
2023-05-04T03:59:45.559Z,49.01
2023-05-04T04:00:46.599Z,49.01
2023-05-04T04:01:45.620Z,49.00
2023-05-04T04:02:45.735Z,48.96
2023-05-04T04:03:46.706Z,48.94
2023-05-04T04:04:46.742Z,48.93
2023-05-04T04:05:46.774Z,48.94
2023-05-04T04:06:46.824Z,48.95
2023-05-04T04:07:45.829Z,48.91
2023-05-04T04:08:46.850Z,48.90
2023-05-04T04:09:45.908Z,48.90
2023-05-04T04:10:46.919Z,48.90
2023-05-04T04:11:46.975Z,48.91
2023-05-04T04:12:45.995Z,48.89
2023-05-04T04:13:46.014Z,48.89
2023-05-04T04:14:47.090Z,48.87
2023-05-04T04:15:47.142Z,48.87
2023-05-04T04:16:47.184Z,48.87
2023-05-04T04:17:47.206Z,48.83
2023-05-04T04:18:47.234Z,48.86
2023-05-04T04:19:47.286Z,48.86
2023-05-04T04:20:46.332Z,48.87
2023-05-04T04:21:46.344Z,48.87
2023-05-04T04:22:47.409Z,48.89
2023-05-04T04:23:47.423Z,48.87
2023-05-04T04:24:46.451Z,48.86
2023-05-04T04:25:46.542Z,48.85
2023-05-04T04:26:46.519Z,48.86
2023-05-04T04:27:46.564Z,48.84
2023-05-04T04:28:47.680Z,48.82
2023-05-04T04:29:47.640Z,48.85
2023-05-04T04:30:47.670Z,48.84
2023-05-04T04:31:46.861Z,48.86
2023-05-04T04:32:47.787Z,48.84
2023-05-04T04:33:46.755Z,48.83
2023-05-04T04:34:47.793Z,48.77
2023-05-04T04:35:46.829Z,48.79
2023-05-04T04:36:46.877Z,48.79
2023-05-04T04:37:46.963Z,48.78
2023-05-04T04:38:47.967Z,48.75
2023-05-04T04:39:47.959Z,48.74
2023-05-04T04:40:48.041Z,48.76
2023-05-04T04:41:48.126Z,48.75
2023-05-04T04:42:47.078Z,48.73
2023-05-04T04:43:48.143Z,48.73
2023-05-04T04:44:48.214Z,48.70
2023-05-04T04:45:47.196Z,48.71
2023-05-04T04:46:47.244Z,48.73
2023-05-04T04:47:47.315Z,48.69
2023-05-04T04:48:47.297Z,48.65
2023-05-04T04:49:47.346Z,48.67
2023-05-04T04:50:48.392Z,48.67
2023-05-04T04:51:48.469Z,48.65
2023-05-04T04:52:47.498Z,48.66
2023-05-04T04:53:47.573Z,48.66
2023-05-04T04:54:48.561Z,48.66
2023-05-04T04:55:48.597Z,48.65
2023-05-04T04:56:47.621Z,48.66
2023-05-04T04:57:48.711Z,48.61
2023-05-04T04:58:48.709Z,48.66
2023-05-04T04:59:49.024Z,48.62
2023-05-04T05:00:48.843Z,48.60
2023-05-04T05:01:48.864Z,48.63
2023-05-04T05:02:47.947Z,48.66
2023-05-04T05:03:49.017Z,48.68
2023-05-04T05:04:49.136Z,48.67
2023-05-04T05:05:49.108Z,48.66
2023-05-04T05:06:48.089Z,48.69
2023-05-04T05:07:49.129Z,48.69
2023-05-04T05:08:48.165Z,48.69
2023-05-04T05:09:48.276Z,48.65
2023-05-04T05:10:48.315Z,48.67
2023-05-04T05:11:49.322Z,48.66
2023-05-04T05:12:48.374Z,48.66
2023-05-04T05:13:48.376Z,48.64
2023-05-04T05:14:49.413Z,48.67
2023-05-04T05:15:49.624Z,48.68
2023-05-04T05:16:48.579Z,48.66
2023-05-04T05:17:48.581Z,48.66
2023-05-04T05:18:49.618Z,48.87
2023-05-04T05:19:48.649Z,48.85
2023-05-04T05:20:48.735Z,48.79
2023-05-04T05:21:48.767Z,48.73
2023-05-04T05:22:49.729Z,48.74
2023-05-04T05:23:49.792Z,48.72
2023-05-04T05:24:49.913Z,48.72
2023-05-04T05:25:49.822Z,48.72
2023-05-04T05:26:48.850Z,48.80
2023-05-04T05:27:48.895Z,49.02
2023-05-04T05:28:50.016Z,49.04
2023-05-04T05:29:49.949Z,49.09
2023-05-04T05:30:49.802Z,49.05
2023-05-04T05:31:49.042Z,49.13
2023-05-04T05:32:50.040Z,49.24
2023-05-04T05:33:49.053Z,49.20
2023-05-04T05:34:50.073Z,49.75
2023-05-04T05:35:50.076Z,50.76
2023-05-04T05:36:50.121Z,50.39
2023-05-04T05:37:49.284Z,50.36
2023-05-04T05:38:50.505Z,50.15
2023-05-04T05:39:49.250Z,50.36
2023-05-04T05:40:50.321Z,50.28
2023-05-04T05:41:49.299Z,50.24
2023-05-04T05:42:50.311Z,50.35
2023-05-04T05:43:50.367Z,50.47
2023-05-04T05:44:50.372Z,50.62
2023-05-04T05:45:50.408Z,50.52
2023-05-04T05:46:50.371Z,50.45
2023-05-04T05:47:50.431Z,50.67
2023-05-04T05:48:50.552Z,50.61
2023-05-04T05:49:50.611Z,48.76
2023-05-04T05:50:50.524Z,46.20
2023-05-04T05:51:49.589Z,45.29
2023-05-04T05:52:49.759Z,45.30
2023-05-04T05:53:50.575Z,46.05
2023-05-04T05:54:50.526Z,45.99
2023-05-04T05:55:50.562Z,46.76
2023-05-04T05:56:50.551Z,46.62
2023-05-04T05:57:50.567Z,46.74
2023-05-04T05:58:49.639Z,46.67
2023-05-04T05:59:49.704Z,46.37
2023-05-04T06:00:49.678Z,46.32
2023-05-04T06:01:50.776Z,46.53
2023-05-04T06:02:50.779Z,46.71
2023-05-04T06:03:50.998Z,47.05
2023-05-04T06:04:50.850Z,47.28
2023-05-04T06:05:50.813Z,47.52
2023-05-04T06:06:50.872Z,47.74
2023-05-04T06:07:49.918Z,47.90
2023-05-04T06:08:50.994Z,47.99
2023-05-04T06:09:50.073Z,48.07
2023-05-04T06:10:50.101Z,48.16
2023-05-04T06:11:50.178Z,48.26
2023-05-04T06:12:50.307Z,48.14
2023-05-04T06:13:51.197Z,48.06
2023-05-04T06:14:51.242Z,47.90
2023-05-04T06:15:50.282Z,47.79
2023-05-04T06:16:50.269Z,47.81
2023-05-04T06:17:50.342Z,47.89
2023-05-04T06:18:50.324Z,47.83
2023-05-04T06:19:51.556Z,47.93
2023-05-04T06:20:50.390Z,48.01
2023-05-04T06:21:51.504Z,48.00
2023-05-04T06:22:51.428Z,48.22
2023-05-04T06:23:51.432Z,48.42
2023-05-04T06:24:51.477Z,48.69
2023-05-04T06:25:51.590Z,48.97
2023-05-04T06:26:51.513Z,48.89
2023-05-04T06:27:50.550Z,48.79
2023-05-04T06:28:51.574Z,48.75
2023-05-04T06:29:51.574Z,49.18
2023-05-04T06:30:51.612Z,49.12
2023-05-04T06:31:51.669Z,49.14
2023-05-04T06:32:51.750Z,49.32
2023-05-04T06:33:50.628Z,49.32
2023-05-04T06:34:50.663Z,49.21
2023-05-04T06:35:51.760Z,48.98
2023-05-04T06:36:51.700Z,48.97
2023-05-04T06:38:50.796Z,49.19
2023-05-04T06:39:51.808Z,49.27
2023-05-04T06:40:51.888Z,49.25
2023-05-04T06:41:51.851Z,49.32
2023-05-04T06:42:51.853Z,49.32
2023-05-04T06:43:50.862Z,49.25
2023-05-04T06:44:51.906Z,49.23
2023-05-04T06:45:51.990Z,49.30
2023-05-04T06:46:50.935Z,49.25
2023-05-04T06:47:52.030Z,49.13
2023-05-04T06:48:51.985Z,49.09
2023-05-04T06:49:51.982Z,49.19
2023-05-04T06:50:51.024Z,49.31
2023-05-04T06:51:51.329Z,49.41
2023-05-04T06:52:51.081Z,49.49
2023-05-04T06:53:51.099Z,49.46
2023-05-04T06:54:52.095Z,49.45
2023-05-04T06:55:52.094Z,49.52
2023-05-04T06:56:51.254Z,49.71
2023-05-04T06:57:52.138Z,49.59
2023-05-04T06:58:52.298Z,49.42
2023-05-04T06:59:52.191Z,49.41
2023-05-04T07:00:52.272Z,49.24
2023-05-04T07:01:51.244Z,49.07
2023-05-04T07:02:51.338Z,48.98
2023-05-04T07:03:51.386Z,48.88
2023-05-04T07:04:51.324Z,48.78
2023-05-04T07:05:51.346Z,48.63
2023-05-04T07:06:52.415Z,48.60
2023-05-04T07:07:52.440Z,48.57
2023-05-04T07:08:51.465Z,48.53
2023-05-04T07:09:51.505Z,48.50
2023-05-04T07:10:52.578Z,48.53
2023-05-04T07:11:52.585Z,48.47
2023-05-04T07:12:52.636Z,48.44
2023-05-04T07:13:52.661Z,48.41
2023-05-04T07:14:51.619Z,48.34
2023-05-04T07:15:52.718Z,48.23
2023-05-04T07:16:52.650Z,48.13
2023-05-04T07:17:52.714Z,48.12
2023-05-04T07:18:51.652Z,48.05
2023-05-04T07:19:51.620Z,48.05
2023-05-04T07:20:52.891Z,48.02
2023-05-04T07:21:52.717Z,48.01
2023-05-04T07:22:52.785Z,48.01
2023-05-04T07:23:52.845Z,48.02
2023-05-04T07:24:51.884Z,48.08
2023-05-04T07:25:53.804Z,48.01
2023-05-04T07:26:53.010Z,48.01
2023-05-04T07:27:53.054Z,48.00
2023-05-04T07:28:53.175Z,48.03
2023-05-04T07:29:52.088Z,47.99
2023-05-04T07:30:53.139Z,47.95
2023-05-04T07:31:53.269Z,47.97
2023-05-04T07:32:52.310Z,47.94
2023-05-04T07:33:53.294Z,47.91
2023-05-04T07:34:52.306Z,47.88
2023-05-04T07:35:53.383Z,47.92
2023-05-04T07:36:53.348Z,47.93
2023-05-04T07:37:53.350Z,47.92
2023-05-04T07:38:53.373Z,47.75
2023-05-04T07:39:53.624Z,47.94
2023-05-04T07:40:53.481Z,48.00
2023-05-04T07:41:53.463Z,48.06
2023-05-04T07:42:52.469Z,48.13
2023-05-04T07:43:52.490Z,48.10
2023-05-04T07:44:53.581Z,48.09
2023-05-04T07:45:52.602Z,48.11
2023-05-04T07:46:53.505Z,48.09
2023-05-04T07:47:53.588Z,47.95
2023-05-04T07:48:52.603Z,48.31
2023-05-04T07:49:53.819Z,48.32
2023-05-04T07:50:52.619Z,48.39
2023-05-04T07:51:53.866Z,48.39
2023-05-04T07:52:52.684Z,48.40
2023-05-04T07:53:53.691Z,48.35
2023-05-04T07:54:53.710Z,48.38
2023-05-04T07:55:52.728Z,48.40
2023-05-04T07:56:52.742Z,48.36
2023-05-04T07:57:53.737Z,48.37
2023-05-04T07:58:53.729Z,48.35
2023-05-04T07:59:52.752Z,48.34
2023-05-04T08:00:52.790Z,48.38
2023-05-04T08:01:53.834Z,48.35
2023-05-04T08:02:52.826Z,48.34
2023-05-04T08:03:53.768Z,48.33
2023-05-04T08:04:52.811Z,48.36
2023-05-04T08:05:53.772Z,48.33
2023-05-04T08:06:52.847Z,48.32
2023-05-04T08:07:52.895Z,48.33
2023-05-04T08:08:53.054Z,48.31
2023-05-04T08:09:52.862Z,48.30
2023-05-04T08:10:52.851Z,48.29
2023-05-04T08:11:53.894Z,48.32
2023-05-04T08:12:52.900Z,48.32
2023-05-04T08:13:53.893Z,48.27
2023-05-04T08:14:53.892Z,48.31
2023-05-04T08:15:52.918Z,48.27
2023-05-04T08:16:52.918Z,48.26
2023-05-04T08:17:54.001Z,48.25
2023-05-04T08:18:53.918Z,48.26
2023-05-04T08:19:54.100Z,48.23
2023-05-04T08:20:53.932Z,48.22
2023-05-04T08:21:53.962Z,48.24
2023-05-04T08:22:53.036Z,48.23
2023-05-04T08:23:53.973Z,48.22
2023-05-04T08:24:53.974Z,48.23
2023-05-04T08:25:53.972Z,48.23
2023-05-04T08:27:04.158Z,48.23
2023-05-04T08:28:03.410Z,48.20
2023-05-04T08:28:54.101Z,48.26
2023-05-04T08:29:54.026Z,48.21
2023-05-04T08:30:53.016Z,48.19
2023-05-04T08:31:54.060Z,48.20
2023-05-04T08:32:53.992Z,48.16
2023-05-04T08:33:53.980Z,48.15
2023-05-04T08:34:52.944Z,48.15
2023-05-04T08:35:53.006Z,48.15
2023-05-04T08:36:54.021Z,48.13
2023-05-04T08:37:54.183Z,48.13
2023-05-04T08:38:54.340Z,48.11
2023-05-04T08:39:53.992Z,48.08
2023-05-04T08:40:53.025Z,48.09
2023-05-04T08:41:53.969Z,48.10
2023-05-04T08:42:53.892Z,48.11
2023-05-04T08:43:53.927Z,48.09
2023-05-04T08:44:53.922Z,48.17
2023-05-04T08:45:53.954Z,48.23
2023-05-04T08:46:52.898Z,48.43
2023-05-04T08:47:53.976Z,48.41
2023-05-04T08:48:59.817Z,48.35
2023-05-04T08:49:53.856Z,48.52
2023-05-04T08:50:53.822Z,48.76
2023-05-04T08:51:53.804Z,48.72
2023-05-04T08:52:53.805Z,48.81
2023-05-04T08:53:52.802Z,48.78
2023-05-04T08:54:52.810Z,48.83
2023-05-04T08:55:53.789Z,49.09
2023-05-04T08:56:53.800Z,48.85
2023-05-04T08:57:53.771Z,48.75
2023-05-04T08:58:53.769Z,48.83
2023-05-04T08:59:53.892Z,48.97
2023-05-04T09:00:53.864Z,49.10
2023-05-04T09:01:53.871Z,49.29
2023-05-04T09:02:53.851Z,49.61
2023-05-04T09:03:53.873Z,49.59
2023-05-04T09:04:52.774Z,49.70
2023-05-04T09:05:52.721Z,49.68
2023-05-04T09:06:53.709Z,49.64
2023-05-04T09:07:53.678Z,49.73
2023-05-04T09:08:53.678Z,49.81
2023-05-04T09:09:52.684Z,49.98
2023-05-04T09:10:52.668Z,50.02
2023-05-04T09:11:53.675Z,50.05
2023-05-04T09:12:52.713Z,50.09
2023-05-04T09:13:52.669Z,50.13
2023-05-04T09:14:52.661Z,50.19
2023-05-04T09:15:52.679Z,50.18
2023-05-04T09:16:52.645Z,50.28
2023-05-04T09:17:57.746Z,50.39
2023-05-04T09:18:53.632Z,50.29
2023-05-04T09:19:52.627Z,50.34
2023-05-04T09:20:53.583Z,50.40
2023-05-04T09:21:53.596Z,50.36
2023-05-04T09:22:52.589Z,50.47
2023-05-04T09:23:53.601Z,50.41
2023-05-04T09:24:53.570Z,50.37
2023-05-04T09:25:53.576Z,50.48
2023-05-04T09:26:53.592Z,50.51
2023-05-04T09:27:53.565Z,50.44
2023-05-04T09:28:53.530Z,50.54
2023-05-04T09:29:53.533Z,50.55
2023-05-04T09:30:52.532Z,50.61
2023-05-04T09:31:53.604Z,50.60
2023-05-04T09:32:52.547Z,50.54
2023-05-04T09:33:53.771Z,50.50
2023-05-04T09:34:52.500Z,50.61
2023-05-04T09:35:52.495Z,50.61
2023-05-04T09:36:53.542Z,50.57
2023-05-04T09:37:53.601Z,50.59
2023-05-04T09:38:52.683Z,50.64
2023-05-04T09:39:53.726Z,50.49
2023-05-04T09:40:52.803Z,50.56
2023-05-04T09:41:52.861Z,50.64
2023-05-04T09:42:53.893Z,50.61
2023-05-04T09:43:53.976Z,50.69
2023-05-04T09:44:54.006Z,50.72
2023-05-04T09:45:53.206Z,50.63
2023-05-04T09:46:53.340Z,50.49
2023-05-04T09:47:54.318Z,50.37
2023-05-04T09:48:54.229Z,50.35
2023-05-04T09:49:53.224Z,50.22
2023-05-04T09:50:54.184Z,50.10
2023-05-04T09:51:54.826Z,50.18
2023-05-04T09:52:54.187Z,50.15
2023-05-04T09:53:53.194Z,50.12
2023-05-04T09:54:54.202Z,50.15
2023-05-04T09:55:54.229Z,50.16
2023-05-04T09:56:54.235Z,50.15
2023-05-04T09:57:54.255Z,50.23
2023-05-04T09:58:53.269Z,50.22
2023-05-04T09:59:54.286Z,50.04
2023-05-04T10:00:54.330Z,50.13
2023-05-04T10:01:53.373Z,50.05
2023-05-04T10:02:54.377Z,49.94
2023-05-04T10:03:53.456Z,50.05
2023-05-04T10:04:54.423Z,50.04
2023-05-04T10:05:54.501Z,50.00
2023-05-04T10:06:53.498Z,50.03
2023-05-04T10:07:53.551Z,49.97
2023-05-04T10:08:54.570Z,49.90
2023-05-04T10:09:54.608Z,49.81
2023-05-04T10:10:54.646Z,49.86
2023-05-04T10:11:54.694Z,49.63
2023-05-04T10:12:54.789Z,49.58
2023-05-04T10:13:53.745Z,49.62
2023-05-04T10:14:54.789Z,49.53
2023-05-04T10:15:54.892Z,49.53
2023-05-04T10:16:54.873Z,49.36
2023-05-04T10:17:54.946Z,49.40
2023-05-04T10:18:54.977Z,49.32
2023-05-04T10:19:53.995Z,49.47
2023-05-04T10:20:54.023Z,49.48
2023-05-04T10:21:55.075Z,49.56
2023-05-04T10:22:54.087Z,49.56
2023-05-04T10:23:54.115Z,49.53
2023-05-04T10:24:54.157Z,49.59
2023-05-04T10:25:54.174Z,49.58
2023-05-04T10:26:54.236Z,49.56
2023-05-04T10:27:54.281Z,49.49
2023-05-04T10:28:55.308Z,49.51
2023-05-04T10:29:54.352Z,49.47
2023-05-04T10:30:55.433Z,49.43
2023-05-04T10:31:55.459Z,49.44
2023-05-04T10:32:55.510Z,49.40
2023-05-04T10:33:54.526Z,49.33
2023-05-04T10:34:56.174Z,49.29
2023-05-04T10:35:54.762Z,49.27
2023-05-04T10:36:55.786Z,49.27
2023-05-04T10:37:55.873Z,49.26
2023-05-04T10:38:54.877Z,49.23
2023-05-04T10:39:54.924Z,49.06
2023-05-04T10:40:55.953Z,49.09
2023-05-04T10:41:55.003Z,49.12
2023-05-04T10:42:56.849Z,49.10
2023-05-04T10:43:56.062Z,49.00
2023-05-04T10:44:55.308Z,49.01
2023-05-04T10:45:56.209Z,48.96
2023-05-04T10:46:58.953Z,48.97
2023-05-04T10:47:56.361Z,48.82
2023-05-04T10:48:55.181Z,48.80
2023-05-04T10:49:56.158Z,48.79
2023-05-04T10:50:56.196Z,48.75
2023-05-04T10:51:56.143Z,48.70
2023-05-04T10:52:55.167Z,48.74
2023-05-04T10:53:56.138Z,48.65
2023-05-04T10:54:55.129Z,48.68
2023-05-04T10:55:56.114Z,48.54
2023-05-04T10:56:56.131Z,48.60
2023-05-04T10:57:56.125Z,48.59
2023-05-04T10:58:55.100Z,48.57
2023-05-04T10:59:55.098Z,48.56
2023-05-04T11:00:55.107Z,48.56
2023-05-04T11:01:56.094Z,48.49
2023-05-04T11:02:56.154Z,48.49
2023-05-04T11:03:56.129Z,48.47
2023-05-04T11:04:56.061Z,48.46
2023-05-04T11:05:56.071Z,48.45
2023-05-04T11:06:56.142Z,48.45
2023-05-04T11:07:55.051Z,48.37
2023-05-04T11:08:55.030Z,48.32
2023-05-04T11:09:56.068Z,48.25
2023-05-04T11:10:56.120Z,48.21
2023-05-04T11:11:56.212Z,48.13
2023-05-04T11:12:56.240Z,48.13
2023-05-04T11:13:56.252Z,48.03
2023-05-04T11:14:56.313Z,48.04
2023-05-04T11:15:56.363Z,48.06
2023-05-04T11:16:56.416Z,48.02
2023-05-04T11:17:55.497Z,48.04
2023-05-04T11:18:55.501Z,48.05
2023-05-04T11:19:55.609Z,47.99
2023-05-04T11:20:56.605Z,47.97
2023-05-04T11:21:56.720Z,47.84
2023-05-04T11:22:55.743Z,47.80
2023-05-04T11:23:55.721Z,47.86
2023-05-04T11:24:56.792Z,47.76
2023-05-04T11:25:56.871Z,47.78
2023-05-04T11:26:55.859Z,47.73
2023-05-04T11:27:56.950Z,47.72
2023-05-04T11:28:55.950Z,47.71
2023-05-04T11:29:57.030Z,47.74
2023-05-04T11:30:57.139Z,47.82
2023-05-04T11:31:56.230Z,47.75
2023-05-04T11:32:56.256Z,47.80
2023-05-04T11:33:56.192Z,47.77
2023-05-04T11:34:57.232Z,47.86
2023-05-04T11:35:56.329Z,47.81
2023-05-04T11:36:57.386Z,47.71
2023-05-04T11:37:56.926Z,47.62
2023-05-04T11:38:56.553Z,47.77
2023-05-04T11:39:56.522Z,47.66
2023-05-04T11:40:57.630Z,47.73
2023-05-04T11:41:56.660Z,47.40
2023-05-04T11:42:57.051Z,47.48
2023-05-04T11:43:57.727Z,47.57
2023-05-04T11:44:56.780Z,47.62
2023-05-04T11:45:56.871Z,47.70
2023-05-04T11:46:56.891Z,47.58
2023-05-04T11:47:56.985Z,47.56
2023-05-04T11:48:56.994Z,47.64
2023-05-04T11:49:57.019Z,47.60
2023-05-04T11:50:57.064Z,47.51
2023-05-04T11:51:57.068Z,47.49
2023-05-04T11:52:57.210Z,47.49
2023-05-04T11:53:57.210Z,47.51
2023-05-04T11:54:57.327Z,47.50
2023-05-04T11:55:58.270Z,47.37
2023-05-04T11:56:57.370Z,47.25
2023-05-04T11:57:58.428Z,47.24
2023-05-04T11:58:57.476Z,47.15
2023-05-04T11:59:58.452Z,47.13
2023-05-04T12:00:58.488Z,47.13
2023-05-04T12:01:57.514Z,47.13
2023-05-04T12:02:58.713Z,47.16
2023-05-04T12:03:57.741Z,47.15
2023-05-04T12:04:57.756Z,47.11
2023-05-04T12:05:57.846Z,47.16
2023-05-04T12:07:01.118Z,47.01
2023-05-04T12:07:57.742Z,47.03
2023-05-04T12:08:57.729Z,47.04
2023-05-04T12:09:57.875Z,47.05
2023-05-04T12:10:57.814Z,47.05
2023-05-04T12:11:57.722Z,46.98
2023-05-04T12:12:57.860Z,46.96
2023-05-04T12:13:57.774Z,46.99
2023-05-04T12:14:57.724Z,47.08
2023-05-04T12:15:57.810Z,47.06
2023-05-04T12:16:57.803Z,47.00
2023-05-04T12:17:58.458Z,47.01
2023-05-04T12:18:57.722Z,46.84
2023-05-04T12:19:57.734Z,46.63
2023-05-04T12:20:58.731Z,46.60
2023-05-04T12:21:57.718Z,46.62
2023-05-04T12:22:57.700Z,46.68
2023-05-04T12:23:57.640Z,46.91
2023-05-04T12:24:57.650Z,46.89
2023-05-04T12:25:58.688Z,46.69
2023-05-04T12:26:57.740Z,46.71
2023-05-04T12:27:58.612Z,46.66
2023-05-04T12:28:58.663Z,46.40
2023-05-04T12:29:57.617Z,46.09
2023-05-04T12:30:57.578Z,45.61
2023-05-04T12:31:57.727Z,45.84
2023-05-04T12:32:57.613Z,45.85
2023-05-04T12:33:57.614Z,45.66
2023-05-04T12:34:58.677Z,45.66
2023-05-04T12:35:58.798Z,45.63
2023-05-04T12:36:57.790Z,45.52
2023-05-04T12:37:58.857Z,45.73
2023-05-04T12:38:58.874Z,45.55
2023-05-04T12:39:57.927Z,45.69
2023-05-04T12:40:57.904Z,45.65
2023-05-04T12:41:57.944Z,45.74
2023-05-04T12:42:58.011Z,45.80
2023-05-04T12:43:58.006Z,45.78
2023-05-04T12:44:58.112Z,45.89
2023-05-04T12:45:59.211Z,45.86
2023-05-04T12:46:59.176Z,45.87
2023-05-04T12:47:59.379Z,45.92
2023-05-04T12:48:58.282Z,46.00
2023-05-04T12:49:58.240Z,45.96
2023-05-04T12:50:59.276Z,46.00
2023-05-04T12:51:58.357Z,46.03
2023-05-04T12:52:59.359Z,46.11
2023-05-04T12:53:58.423Z,46.04